createdAt,value
2022-12-20T00:01:29.638Z,99915.80
2022-12-20T00:03:59.366Z,99919.40
2022-12-20T00:06:27.299Z,99916.60
2022-12-20T00:08:57.346Z,99918.00
2022-12-20T00:11:25.476Z,99909.40
2022-12-20T00:13:53.394Z,99914.20
2022-12-20T00:16:26.610Z,99912.60
2022-12-20T00:18:57.588Z,99910.20
2022-12-20T00:21:25.676Z,99917.00
2022-12-20T00:23:53.787Z,99917.40
2022-12-20T00:26:24.645Z,99913.40
2022-12-20T00:28:53.753Z,99912.40
2022-12-20T00:31:22.907Z,99910.80
2022-12-20T00:33:53.171Z,99910.20
2022-12-20T00:36:21.868Z,99904.40
2022-12-20T00:38:51.393Z,99907.40
2022-12-20T00:41:21.769Z,99908.00
2022-12-20T00:43:49.972Z,99908.00
2022-12-20T00:46:19.149Z,99909.60
2022-12-20T00:48:47.168Z,99910.20
2022-12-20T00:51:17.402Z,99905.80
2022-12-20T00:53:45.238Z,99908.40
2022-12-20T00:56:13.228Z,99915.20
2022-12-20T00:58:42.452Z,99917.40
2022-12-20T01:01:21.276Z,99911.20
2022-12-20T01:03:50.448Z,99911.20
2022-12-20T01:06:18.931Z,99905.80
2022-12-20T01:08:47.106Z,99902.80
2022-12-20T01:11:18.718Z,99899.40
2022-12-20T01:13:50.413Z,99897.20
2022-12-20T01:16:34.745Z,99891.60
2022-12-20T01:19:02.778Z,99887.80
2022-12-20T01:21:30.704Z,99885.00
2022-12-20T01:23:58.610Z,99883.20
2022-12-20T01:26:28.773Z,99878.80
2022-12-20T01:28:59.445Z,99873.60
2022-12-20T01:31:27.926Z,99860.80
2022-12-20T01:33:55.934Z,99859.20
2022-12-20T01:36:26.879Z,99854.40
2022-12-20T01:38:59.803Z,99848.00
2022-12-20T01:41:28.304Z,99845.00
2022-12-20T01:43:59.362Z,99838.20
2022-12-20T01:46:30.035Z,99834.40
2022-12-20T01:49:07.088Z,99829.80
2022-12-20T01:51:39.081Z,99821.00
2022-12-20T01:54:24.107Z,99822.00
2022-12-20T01:56:56.751Z,99823.40
2022-12-20T01:59:25.800Z,99825.80
2022-12-20T02:01:53.899Z,99821.20
2022-12-20T02:04:22.331Z,99826.20
2022-12-20T02:06:50.158Z,99837.00
2022-12-20T02:09:17.979Z,99845.40
2022-12-20T02:12:04.094Z,99846.60
2022-12-20T02:15:04.996Z,99837.20
2022-12-20T02:17:54.692Z,99821.60
2022-12-20T02:20:47.148Z,99814.60
2022-12-20T02:23:40.088Z,99813.80
2022-12-20T02:26:51.941Z,99812.80
2022-12-20T02:29:32.187Z,99809.40
2022-12-20T02:32:16.656Z,99806.00
2022-12-20T02:34:45.254Z,99806.60
2022-12-20T02:37:13.092Z,99809.40
2022-12-20T02:39:41.223Z,99813.20
2022-12-20T02:42:22.685Z,99806.40
2022-12-20T02:45:15.375Z,99806.20
2022-12-20T02:48:05.089Z,99812.40
2022-12-20T02:50:40.832Z,99810.60
2022-12-20T02:53:09.644Z,99802.40
2022-12-20T02:56:03.484Z,99801.80
2022-12-20T02:58:51.930Z,99810.80
2022-12-20T03:01:28.182Z,99809.40
2022-12-20T03:03:57.278Z,99824.20
2022-12-20T03:06:25.314Z,99826.00
2022-12-20T03:08:53.338Z,99808.00
2022-12-20T03:11:23.517Z,99807.60
2022-12-20T03:13:51.403Z,99799.00
2022-12-20T03:16:19.293Z,99796.80
2022-12-20T03:18:48.138Z,99793.20
2022-12-20T03:21:15.952Z,99792.40
2022-12-20T03:23:43.853Z,99793.20
2022-12-20T03:26:11.568Z,99791.20
2022-12-20T03:28:42.949Z,99777.60
2022-12-20T03:31:12.392Z,99782.20
2022-12-20T03:33:45.841Z,99781.40
2022-12-20T03:36:13.894Z,99769.60
2022-12-20T03:38:42.083Z,99768.40
2022-12-20T03:41:10.251Z,99760.00
2022-12-20T03:43:38.510Z,99750.80
2022-12-20T03:46:06.536Z,99749.20
2022-12-20T03:48:36.707Z,99753.40
2022-12-20T03:51:05.220Z,99754.20
2022-12-20T03:53:33.351Z,99756.00
2022-12-20T03:56:01.143Z,99756.80
2022-12-20T03:58:29.675Z,99758.40
2022-12-20T04:00:58.175Z,99752.60
2022-12-20T04:03:46.264Z,99754.40
2022-12-20T04:06:14.381Z,99763.40
2022-12-20T04:08:42.415Z,99758.80
2022-12-20T04:11:16.439Z,99762.80
2022-12-20T04:13:52.977Z,99756.60
2022-12-20T04:16:27.117Z,99759.80
2022-12-20T04:18:55.638Z,99755.00
2022-12-20T04:21:29.053Z,99749.80
2022-12-20T04:23:59.817Z,99744.00
2022-12-20T04:26:35.269Z,99751.60
2022-12-20T04:29:03.651Z,99753.60
2022-12-20T04:31:32.122Z,99740.60
2022-12-20T04:34:00.994Z,99731.80
2022-12-20T04:36:31.875Z,99722.40
2022-12-20T04:39:00.658Z,99709.00
2022-12-20T04:41:29.522Z,99721.00
2022-12-20T04:43:59.787Z,99727.60
2022-12-20T04:46:34.788Z,99739.40
2022-12-20T04:49:02.992Z,99742.20
2022-12-20T04:51:32.526Z,99747.00
2022-12-20T04:54:00.367Z,99733.80
2022-12-20T04:56:35.998Z,99728.80
2022-12-20T04:59:10.962Z,99732.40
2022-12-20T05:01:40.029Z,99719.20
2022-12-20T05:04:08.804Z,99735.00
2022-12-20T05:06:37.907Z,99727.20
2022-12-20T05:09:05.935Z,99728.20
2022-12-20T05:11:34.274Z,99723.20
2022-12-20T05:14:02.999Z,99719.40
2022-12-20T05:16:30.980Z,99726.00
2022-12-20T05:18:59.208Z,99723.20
2022-12-20T05:21:46.304Z,99742.00
2022-12-20T05:24:33.419Z,99747.80
2022-12-20T05:27:30.625Z,99761.40
2022-12-20T05:29:58.798Z,99756.20
2022-12-20T05:32:28.844Z,99756.60
2022-12-20T05:34:57.083Z,99759.40
2022-12-20T05:37:24.919Z,99759.00
2022-12-20T05:39:52.908Z,99760.60
2022-12-20T05:42:23.072Z,99768.00
2022-12-20T05:44:52.639Z,99775.20
2022-12-20T05:47:21.455Z,99773.60
2022-12-20T05:49:55.713Z,99763.60
2022-12-20T05:52:23.476Z,99759.40
2022-12-20T05:54:51.600Z,99758.00
2022-12-20T05:57:22.548Z,99752.00
2022-12-20T05:59:50.460Z,99751.00
2022-12-20T06:02:21.696Z,99750.60
2022-12-20T06:04:54.055Z,99746.80
2022-12-20T06:07:24.351Z,99759.00
2022-12-20T06:09:58.362Z,99753.40
2022-12-20T06:12:37.292Z,99754.60
2022-12-20T06:15:05.606Z,99749.60
2022-12-20T06:17:33.443Z,99754.80
2022-12-20T06:20:01.706Z,99752.00
2022-12-20T06:22:30.057Z,99745.60
2022-12-20T06:24:58.853Z,99738.40
2022-12-20T06:27:30.623Z,99740.80
2022-12-20T06:30:08.459Z,99739.80
2022-12-20T06:32:47.385Z,99742.20
2022-12-20T06:35:15.482Z,99739.60
2022-12-20T06:37:43.449Z,99748.00
2022-12-20T06:40:13.120Z,99741.20
2022-12-20T06:42:41.042Z,99739.40
2022-12-20T06:45:09.629Z,99743.40
2022-12-20T06:47:37.775Z,99730.20
2022-12-20T06:50:08.703Z,99738.80
2022-12-20T06:52:36.557Z,99733.40
2022-12-20T06:55:05.451Z,99733.00
2022-12-20T06:57:36.724Z,99728.20
2022-12-20T07:00:08.563Z,99719.60
2022-12-20T07:02:37.077Z,99731.80
2022-12-20T07:05:05.834Z,99734.60
2022-12-20T07:07:38.931Z,99747.20
2022-12-20T07:10:12.361Z,99752.40
2022-12-20T07:12:45.602Z,99757.20
2022-12-20T07:15:16.484Z,99758.80
2022-12-20T07:17:44.895Z,99762.80
2022-12-20T07:20:14.084Z,99754.00
2022-12-20T07:22:42.467Z,99747.20
2022-12-20T07:25:11.548Z,99745.80
2022-12-20T07:27:39.573Z,99741.40
2022-12-20T07:30:08.455Z,99734.60
2022-12-20T07:32:36.173Z,99740.60
2022-12-20T07:35:04.121Z,99739.20
2022-12-20T07:37:32.024Z,99746.40
2022-12-20T07:39:59.907Z,99741.60
2022-12-20T07:42:35.576Z,99742.00
2022-12-20T07:45:07.901Z,99738.60
2022-12-20T07:47:36.234Z,99736.60
2022-12-20T07:50:04.597Z,99734.80
2022-12-20T07:52:32.522Z,99739.00
2022-12-20T07:55:03.196Z,99738.40
2022-12-20T07:57:36.663Z,99729.40
2022-12-20T08:00:06.361Z,99734.40
2022-12-20T08:02:45.296Z,99736.40
2022-12-20T08:05:13.402Z,99734.20
2022-12-20T08:07:41.683Z,99730.80
2022-12-20T08:10:11.663Z,99722.80
2022-12-20T08:12:39.537Z,99724.40
2022-12-20T08:15:08.426Z,99715.40
2022-12-20T08:17:36.339Z,99707.80
2022-12-20T08:20:05.927Z,99704.00
2022-12-20T08:22:33.696Z,99703.80
2022-12-20T08:25:01.501Z,99707.60
2022-12-20T08:27:29.276Z,99708.40
2022-12-20T08:29:57.008Z,99706.40
2022-12-20T08:32:25.056Z,99707.60
2022-12-20T08:34:53.630Z,99714.80
2022-12-20T08:37:21.832Z,99718.40
2022-12-20T08:39:50.105Z,99723.60
2022-12-20T08:42:18.048Z,99721.80
2022-12-20T08:44:45.925Z,99724.60
2022-12-20T08:47:13.674Z,99727.20
2022-12-20T08:49:47.356Z,99731.20
2022-12-20T08:52:15.771Z,99730.60
2022-12-20T08:54:43.567Z,99729.00
2022-12-20T08:57:11.508Z,99729.00
2022-12-20T08:59:39.513Z,99735.20
2022-12-20T09:02:07.401Z,99725.20
2022-12-20T09:04:35.281Z,99730.20
2022-12-20T09:07:03.122Z,99718.00
2022-12-20T09:09:31.791Z,99711.40
2022-12-20T09:11:59.708Z,99708.00
2022-12-20T09:14:27.773Z,99709.40
2022-12-20T09:16:56.702Z,99710.00
2022-12-20T09:19:24.523Z,99708.20
2022-12-20T09:21:53.219Z,99712.60
2022-12-20T09:24:21.242Z,99713.20
2022-12-20T09:26:50.297Z,99714.80
2022-12-20T09:29:26.985Z,99712.60
2022-12-20T09:31:56.420Z,99712.00
2022-12-20T09:34:24.432Z,99725.00
2022-12-20T09:36:55.269Z,99721.20
2022-12-20T09:39:23.209Z,99720.20
2022-12-20T09:41:51.424Z,99716.80
2022-12-20T09:44:37.222Z,99720.60
2022-12-20T09:47:10.792Z,99714.80
2022-12-20T09:49:45.180Z,99710.60
2022-12-20T09:52:24.996Z,99710.80
2022-12-20T09:55:31.425Z,99712.40
2022-12-20T09:58:15.386Z,99712.00
2022-12-20T10:00:53.292Z,99710.60
2022-12-20T10:03:29.815Z,99710.60
2022-12-20T10:06:10.923Z,99706.40
2022-12-20T10:08:57.449Z,99706.20
2022-12-20T10:11:50.589Z,99707.80
2022-12-20T10:14:53.014Z,99712.80
2022-12-20T10:17:32.235Z,99706.80
2022-12-20T10:20:55.036Z,99703.20
2022-12-20T10:23:34.330Z,99703.40
2022-12-20T10:26:02.417Z,99704.40
2022-12-20T10:28:35.428Z,99701.60
2022-12-20T10:31:08.006Z,99709.80
2022-12-20T10:33:36.057Z,99704.40
2022-12-20T10:36:24.724Z,99704.60
2022-12-20T10:38:58.091Z,99699.60
2022-12-20T10:41:29.185Z,99693.40
2022-12-20T10:44:04.098Z,99684.80
2022-12-20T10:46:47.236Z,99682.80
2022-12-20T10:49:37.065Z,99678.80
2022-12-20T10:52:08.206Z,99670.00
2022-12-20T10:54:40.908Z,99662.40
2022-12-20T10:57:31.792Z,99647.60
2022-12-20T11:00:03.104Z,99646.00
2022-12-20T11:02:40.838Z,99644.80
2022-12-20T11:05:10.745Z,99643.60
2022-12-20T11:08:33.732Z,99631.20
2022-12-20T11:10:43.302Z,99629.80
2022-12-20T11:13:26.056Z,99623.60
2022-12-20T11:15:57.636Z,99614.20
2022-12-20T11:18:43.101Z,99617.60
2022-12-20T11:21:29.812Z,99612.80
2022-12-20T11:24:59.234Z,99614.00
2022-12-20T11:27:32.630Z,99594.20
2022-12-20T11:30:24.553Z,99593.20
2022-12-20T11:33:28.799Z,99591.40
2022-12-20T11:36:29.862Z,99595.20
2022-12-20T11:39:23.905Z,99588.00
2022-12-20T11:42:04.837Z,99586.20
2022-12-20T11:45:13.767Z,99573.20
2022-12-20T11:48:16.072Z,99586.40
2022-12-20T11:50:54.366Z,99585.40
2022-12-20T11:53:54.437Z,99588.40
2022-12-20T11:56:38.598Z,99585.20
2022-12-20T11:59:40.683Z,99588.80
2022-12-20T12:02:38.509Z,99598.60
2022-12-20T12:05:15.791Z,99591.00
2022-12-20T12:07:44.897Z,99587.00
2022-12-20T12:10:27.650Z,99590.60
2022-12-20T12:13:07.441Z,99591.40
2022-12-20T12:15:42.495Z,99588.00
2022-12-20T12:18:20.517Z,99588.60
2022-12-20T12:21:08.242Z,99598.20
2022-12-20T12:24:15.728Z,99604.00
2022-12-20T12:26:43.671Z,99606.40
2022-12-20T12:29:19.549Z,99610.20
2022-12-20T12:31:50.519Z,99611.40
2022-12-20T12:35:02.256Z,99612.00
2022-12-20T12:38:02.810Z,99617.80
2022-12-20T12:41:06.472Z,99623.00
2022-12-20T12:43:51.733Z,99623.60
2022-12-20T12:46:29.152Z,99616.40
2022-12-20T12:49:10.357Z,99607.20
2022-12-20T12:51:41.085Z,99598.40
2022-12-20T12:54:21.328Z,99606.80
2022-12-20T12:56:53.783Z,99610.00
2022-12-20T12:59:33.527Z,99613.80
2022-12-20T13:02:13.754Z,99606.00
2022-12-20T13:05:06.859Z,99609.40
2022-12-20T13:07:39.678Z,99611.00
2022-12-20T13:10:18.376Z,99609.00
2022-12-20T13:12:52.789Z,99600.20
2022-12-20T13:15:20.840Z,99582.20
2022-12-20T13:17:58.705Z,99578.60
2022-12-20T13:20:33.981Z,99578.00
2022-12-20T13:23:08.211Z,99576.60
2022-12-20T13:25:41.723Z,99577.20
2022-12-20T13:28:24.839Z,99580.40
2022-12-20T13:31:02.042Z,99577.60
2022-12-20T13:33:42.086Z,99574.00
2022-12-20T13:36:10.014Z,99577.00
2022-12-20T13:38:56.136Z,99570.60
2022-12-20T13:41:40.931Z,99564.40
2022-12-20T13:44:33.045Z,99550.00
2022-12-20T13:47:07.930Z,99545.60
2022-12-20T13:49:40.669Z,99535.80
2022-12-20T13:52:11.652Z,99536.40
2022-12-20T13:54:44.620Z,99549.20
2022-12-20T13:57:43.010Z,99556.20
2022-12-20T14:00:22.451Z,99576.80
2022-12-20T14:02:50.581Z,99580.20
2022-12-20T14:05:26.756Z,99577.80
2022-12-20T14:08:06.734Z,99579.40
2022-12-20T14:10:35.330Z,99577.80
2022-12-20T14:13:03.495Z,99575.60
2022-12-20T14:15:34.096Z,99575.00
2022-12-20T14:18:07.081Z,99581.80
2022-12-20T14:20:36.461Z,99577.40
2022-12-20T14:23:12.733Z,99581.20
2022-12-20T14:25:44.896Z,99580.40
2022-12-20T14:28:37.955Z,99579.00
2022-12-20T14:31:08.502Z,99570.60
2022-12-20T14:33:41.131Z,99563.20
2022-12-20T14:36:19.984Z,99577.60
2022-12-20T14:38:50.224Z,99572.60
2022-12-20T14:41:40.635Z,99586.40
2022-12-20T14:44:17.562Z,99583.80
2022-12-20T14:46:53.512Z,99580.60
2022-12-20T14:49:24.281Z,99561.00
2022-12-20T14:51:53.126Z,99574.40
2022-12-20T14:55:05.613Z,99563.40
2022-12-20T14:57:29.410Z,99561.60
2022-12-20T15:00:03.158Z,99557.20
2022-12-20T15:03:01.027Z,99552.00
2022-12-20T15:05:35.750Z,99543.40
2022-12-20T15:08:33.935Z,99533.80
2022-12-20T15:11:11.135Z,99530.40
2022-12-20T15:13:48.923Z,99520.40
2022-12-20T15:16:22.986Z,99523.00
2022-12-20T15:18:54.002Z,99514.20
2022-12-20T15:21:43.371Z,99518.20
2022-12-20T15:24:21.923Z,99518.00
2022-12-20T15:26:50.119Z,99520.40
2022-12-20T15:29:26.293Z,99510.40
2022-12-20T15:32:09.413Z,99515.60
2022-12-20T15:34:38.291Z,99521.00
2022-12-20T15:37:06.462Z,99523.40
2022-12-20T15:39:34.482Z,99528.80
2022-12-20T15:42:04.062Z,99530.80
2022-12-20T15:44:32.028Z,99526.80
2022-12-20T15:46:59.912Z,99514.80
2022-12-20T15:49:30.123Z,99514.80
2022-12-20T15:51:58.176Z,99522.60
2022-12-20T15:54:29.544Z,99531.20
2022-12-20T15:57:04.802Z,99526.60
2022-12-20T15:59:58.867Z,99516.40
2022-12-20T16:02:28.341Z,99522.80
2022-12-20T16:04:57.846Z,99513.20
2022-12-20T16:07:25.691Z,99511.40
2022-12-20T16:09:54.198Z,99510.20
2022-12-20T16:12:28.580Z,99498.00
2022-12-20T16:14:57.173Z,99504.00
2022-12-20T16:17:25.709Z,99503.60
2022-12-20T16:19:53.734Z,99517.40
2022-12-20T16:22:23.075Z,99538.00
2022-12-20T16:24:51.945Z,99532.80
2022-12-20T16:27:20.872Z,99526.20
2022-12-20T16:29:48.848Z,99531.00
2022-12-20T16:32:18.864Z,99524.40
2022-12-20T16:34:47.137Z,99517.40
2022-12-20T16:37:14.868Z,99515.00
2022-12-20T16:39:42.881Z,99504.40
2022-12-20T16:42:15.001Z,99496.40
2022-12-20T16:44:45.139Z,99490.00
2022-12-20T16:47:14.756Z,99484.40
2022-12-20T16:49:49.629Z,99482.60
2022-12-20T16:52:22.018Z,99494.80
2022-12-20T16:54:51.158Z,99497.00
2022-12-20T16:57:21.348Z,99486.20
2022-12-20T16:59:49.583Z,99465.40
2022-12-20T17:02:29.914Z,99450.40
2022-12-20T17:04:58.793Z,99457.60
2022-12-20T17:07:26.943Z,99476.00
2022-12-20T17:10:13.204Z,99470.40
2022-12-20T17:12:41.159Z,99459.60
2022-12-20T17:15:39.149Z,99464.40
2022-12-20T17:18:07.180Z,99462.80
2022-12-20T17:20:37.016Z,99466.20
2022-12-20T17:25:54.361Z,99456.20
2022-12-20T17:28:23.496Z,99458.40
2022-12-20T17:30:51.463Z,99463.60
2022-12-20T17:33:19.484Z,99468.40
2022-12-20T17:35:47.324Z,99472.80
2022-12-20T17:38:15.312Z,99476.60
2022-12-20T17:40:43.171Z,99473.40
2022-12-20T17:43:12.292Z,99467.20
2022-12-20T17:45:41.283Z,99466.20
2022-12-20T17:48:09.557Z,99460.40
2022-12-20T17:50:37.460Z,99462.80
2022-12-20T17:53:05.525Z,99451.40
2022-12-20T17:55:33.403Z,99454.00
2022-12-20T17:58:01.451Z,99455.60
2022-12-20T18:00:38.985Z,99460.00
2022-12-20T18:03:07.770Z,99465.80
2022-12-20T18:05:35.855Z,99461.80
2022-12-20T18:08:04.078Z,99469.40
2022-12-20T18:10:31.898Z,99475.40
2022-12-20T18:12:59.902Z,99468.40
2022-12-20T18:15:27.751Z,99460.20
2022-12-20T18:17:55.679Z,99466.60
2022-12-20T18:20:23.594Z,99462.20
2022-12-20T18:22:51.421Z,99459.20
2022-12-20T18:25:19.487Z,99451.40
2022-12-20T18:27:47.340Z,99444.80
2022-12-20T18:30:15.356Z,99446.00
2022-12-20T18:32:43.534Z,99440.40
2022-12-20T18:35:11.364Z,99435.40
2022-12-20T18:37:39.376Z,99440.20
2022-12-20T18:40:09.020Z,99436.60
2022-12-20T18:42:37.156Z,99437.00
2022-12-20T18:45:05.647Z,99439.40
2022-12-20T18:47:33.432Z,99446.00
2022-12-20T18:50:01.757Z,99447.40
2022-12-20T18:52:29.725Z,99443.80
2022-12-20T18:54:58.370Z,99446.40
2022-12-20T18:57:26.548Z,99452.60
2022-12-20T18:59:54.531Z,99441.00
2022-12-20T19:02:22.673Z,99441.00
2022-12-20T19:04:51.316Z,99439.20
2022-12-20T19:07:19.253Z,99442.60
2022-12-20T19:09:47.002Z,99436.00
2022-12-20T19:12:14.812Z,99429.80
2022-12-20T19:14:42.841Z,99440.20
2022-12-20T19:17:10.930Z,99445.40
2022-12-20T19:19:38.736Z,99431.60
2022-12-20T19:22:06.736Z,99423.00
2022-12-20T19:24:34.724Z,99415.60
2022-12-20T19:27:04.414Z,99411.40
2022-12-20T19:29:32.411Z,99419.00
2022-12-20T19:32:00.228Z,99410.80
2022-12-20T19:34:28.108Z,99403.20
2022-12-20T19:36:55.872Z,99396.40
2022-12-20T19:39:23.841Z,99403.20
2022-12-20T19:44:39.798Z,99401.60
2022-12-20T19:47:07.957Z,99397.80
2022-12-20T19:49:36.205Z,99414.40
2022-12-20T19:52:06.095Z,99415.60
2022-12-20T19:54:35.307Z,99401.40
2022-12-20T19:57:03.886Z,99393.60
2022-12-20T19:59:31.847Z,99397.20
2022-12-20T20:01:59.779Z,99403.20
2022-12-20T20:04:28.172Z,99382.20
2022-12-20T20:06:56.485Z,99381.40
2022-12-20T20:09:24.499Z,99372.00
2022-12-20T20:11:52.394Z,99380.60
2022-12-20T20:14:20.429Z,99384.60
2022-12-20T20:16:48.659Z,99383.80
2022-12-20T20:19:16.706Z,99382.80
2022-12-20T20:21:45.398Z,99377.40
2022-12-20T20:24:13.281Z,99380.60
2022-12-20T20:26:41.370Z,99383.60
2022-12-20T20:29:10.571Z,99380.80
2022-12-20T20:31:38.643Z,99378.00
2022-12-20T20:34:06.949Z,99375.20
2022-12-20T20:36:34.854Z,99366.60
2022-12-20T20:39:02.651Z,99361.40
2022-12-20T20:41:30.638Z,99382.40
2022-12-20T20:43:58.571Z,99377.60
2022-12-20T20:46:26.606Z,99373.60
2022-12-20T20:48:54.744Z,99375.80
2022-12-20T20:51:22.575Z,99365.00
2022-12-20T20:53:50.582Z,99370.80
2022-12-20T20:56:18.761Z,99370.60
2022-12-20T20:58:46.815Z,99364.80
2022-12-20T21:01:15.271Z,99354.80
2022-12-20T21:03:43.278Z,99359.20
2022-12-20T21:08:59.509Z,99361.40
2022-12-20T21:11:27.638Z,99366.60
2022-12-20T21:13:55.688Z,99367.00
2022-12-20T21:16:24.498Z,99361.00
2022-12-20T21:18:56.933Z,99359.20
2022-12-20T21:21:25.496Z,99365.80
2022-12-20T21:23:53.544Z,99353.40
2022-12-20T21:26:21.933Z,99345.60
2022-12-20T21:28:49.932Z,99353.60
2022-12-20T21:31:19.461Z,99363.00
2022-12-20T21:33:47.595Z,99348.40
2022-12-20T21:36:17.990Z,99334.20
2022-12-20T21:38:50.545Z,99350.60
2022-12-20T21:41:20.429Z,99351.00
2022-12-20T21:43:48.416Z,99353.60
2022-12-20T21:46:16.635Z,99332.80
2022-12-20T21:48:44.629Z,99333.60
2022-12-20T21:51:15.892Z,99334.00
2022-12-20T21:53:46.483Z,99338.60
2022-12-20T21:56:15.872Z,99330.00
2022-12-20T21:58:44.641Z,99329.00
2022-12-20T22:01:16.425Z,99321.20
2022-12-20T22:03:44.600Z,99324.40
2022-12-20T22:06:12.669Z,99318.20
2022-12-20T22:08:40.826Z,99316.80
2022-12-20T22:11:14.324Z,99321.40
2022-12-20T22:13:42.952Z,99332.20
2022-12-20T22:16:15.953Z,99322.80
2022-12-20T22:18:44.731Z,99326.20
2022-12-20T22:21:14.011Z,99328.80
2022-12-20T22:23:42.232Z,99323.80
2022-12-20T22:26:15.836Z,99328.80
2022-12-20T22:28:49.558Z,99323.20
2022-12-20T22:31:17.684Z,99310.60
2022-12-20T22:33:45.729Z,99303.40
2022-12-20T22:36:15.243Z,99310.00
2022-12-20T22:38:43.568Z,99307.00
2022-12-20T22:41:27.918Z,99289.80
2022-12-20T22:43:57.861Z,99275.40
2022-12-20T22:46:29.081Z,99268.00
2022-12-20T22:48:58.635Z,99261.00
2022-12-20T22:51:27.571Z,99245.20
2022-12-20T22:53:59.565Z,99246.80
2022-12-20T22:56:27.496Z,99245.20
2022-12-20T22:58:56.053Z,99250.60
2022-12-20T23:01:24.977Z,99262.00
2022-12-20T23:03:53.140Z,99260.60
2022-12-20T23:06:21.364Z,99261.20
2022-12-20T23:08:49.423Z,99260.60
2022-12-20T23:11:44.151Z,99253.00
2022-12-20T23:14:41.513Z,99234.20
2022-12-20T23:17:10.239Z,99220.20
2022-12-20T23:20:13.758Z,99207.80
2022-12-20T23:22:41.850Z,99205.40
2022-12-20T23:25:14.503Z,99219.40
2022-12-20T23:27:43.439Z,99204.20
2022-12-20T23:30:14.125Z,99194.60
2022-12-20T23:32:44.741Z,99187.00
2022-12-20T23:35:15.448Z,99183.40
2022-12-20T23:37:45.484Z,99183.20
2022-12-20T23:40:15.053Z,99205.60
2022-12-20T23:42:43.536Z,99217.80
2022-12-20T23:45:11.741Z,99213.00
2022-12-20T23:47:39.638Z,99213.60
2022-12-20T23:50:08.321Z,99214.00
2022-12-20T23:52:36.868Z,99209.40
2022-12-20T23:55:05.903Z,99210.80
2022-12-20T23:57:33.754Z,99208.20
